Time;durP1;ratioP1;P1;durP2;ratioP2;P2;SDS_P1;SDS_P2;PMS_P1;PMS_P2;Temp;Humidity;BMP_temperature;BMP_pressure;BME280_temperature;BME280_humidity;BME280_pressure;Samples;Min_cycle;Max_cycle;Signal;HPM_P1;HPM_P2
2021/12/02 00:01:36;;;;;;;2.47;2.27;;;4.30;99.90;;;;;;5116821;28;20245;-80
2021/12/02 00:04:02;;;;;;;2.77;2.57;;;4.20;99.90;;;;;;5118250;28;20687;-80
2021/12/02 00:06:27;;;;;;;2.10;1.90;;;4.30;99.90;;;;;;5116863;28;20214;-80
2021/12/02 00:08:53;;;;;;;2.23;2.00;;;4.30;99.90;;;;;;5118352;28;20413;-79
2021/12/02 00:11:20;;;;;;;2.63;1.70;;;4.30;99.90;;;;;;5118245;28;20175;-80
2021/12/02 00:16:31;;;;;;;1.53;1.40;;;4.20;99.90;;;;;;5118016;28;20432;-79
2021/12/02 00:21:46;;;;;;;4.13;3.07;;;4.30;99.90;;;;;;5118638;28;20469;-79
2021/12/02 00:24:19;;;;;;;2.93;2.40;;;4.20;99.90;;;;;;5118773;28;20504;-80
2021/12/02 00:26:49;;;;;;;2.10;1.90;;;4.30;99.90;;;;;;5116572;28;20406;-79
2021/12/02 00:29:19;;;;;;;3.93;2.27;;;4.20;99.90;;;;;;5117161;28;20437;-80
2021/12/02 00:31:46;;;;;;;4.07;2.73;;;4.20;99.90;;;;;;5117833;28;20429;-80
2021/12/02 00:34:12;;;;;;;2.97;2.67;;;4.30;99.90;;;;;;5116932;28;20433;-79
2021/12/02 00:36:39;;;;;;;4.47;3.37;;;4.30;99.90;;;;;;5117670;28;20485;-80
2021/12/02 00:39:18;;;;;;;3.23;2.83;;;4.20;99.90;;;;;;5122421;28;20393;-80
2021/12/02 00:41:45;;;;;;;6.00;4.07;;;4.20;99.90;;;;;;5122440;28;20412;-79
2021/12/02 00:44:12;;;;;;;4.23;3.00;;;4.30;99.90;;;;;;5122605;27;20436;-79
2021/12/02 00:46:39;;;;;;;3.47;3.07;;;4.20;99.90;;;;;;5121206;28;20465;-79
2021/12/02 00:49:11;;;;;;;4.53;3.40;;;4.30;99.90;;;;;;5122456;28;20405;-80
2021/12/02 00:51:37;;;;;;;3.50;2.90;;;4.30;99.90;;;;;;5122756;28;20390;-80
2021/12/02 00:54:09;;;;;;;4.47;2.70;;;4.20;99.90;;;;;;5123715;28;20456;-80
2021/12/02 00:56:36;;;;;;;4.63;2.80;;;4.20;99.90;;;;;;5124569;28;20416;-79
2021/12/02 00:59:02;;;;;;;4.60;2.57;;;4.40;99.90;;;;;;5125206;28;20778;-79
2021/12/02 01:01:36;;;;;;;3.10;2.60;;;4.40;99.90;;;;;;5121443;28;20429;-79
2021/12/02 01:04:12;;;;;;;2.60;2.40;;;4.40;99.90;;;;;;5120417;28;20439;-79
2021/12/02 01:06:39;;;;;;;2.53;2.33;;;4.40;99.90;;;;;;5120129;28;20504;-80
2021/12/02 01:09:07;;;;;;;5.03;3.43;;;4.40;99.90;;;;;;5121591;28;20412;-81
2021/12/02 01:11:33;;;;;;;4.23;3.50;;;4.40;99.90;;;;;;5121615;28;20398;-79
2021/12/02 01:14:00;;;;;;;2.00;1.80;;;4.30;99.90;;;;;;5119853;28;20524;-80
2021/12/02 01:16:26;;;;;;;7.70;4.37;;;4.40;99.90;;;;;;5119650;28;20421;-79
2021/12/02 01:18:52;;;;;;;2.70;2.50;;;4.30;99.90;;;;;;5121283;28;20414;-79
2021/12/02 01:21:22;;;;;;;2.37;2.17;;;4.30;99.90;;;;;;5120919;27;20167;-79
2021/12/02 01:23:54;;;;;;;4.93;2.90;;;4.30;99.90;;;;;;5119683;28;20278;-79
2021/12/02 01:26:20;;;;;;;3.67;2.90;;;4.10;99.90;;;;;;5120182;28;20474;-79
2021/12/02 01:28:48;;;;;;;3.07;1.93;;;4.20;99.90;;;;;;5121284;28;20397;-79
2021/12/02 01:31:14;;;;;;;2.40;1.70;;;4.20;99.90;;;;;;5120892;28;20207;-79
2021/12/02 01:33:42;;;;;;;3.60;2.30;;;4.30;99.90;;;;;;5120907;28;20425;-80
2021/12/02 01:36:09;;;;;;;2.37;2.17;;;4.40;99.90;;;;;;5120129;28;20201;-79
2021/12/02 01:38:35;;;;;;;3.17;2.13;;;4.40;99.90;;;;;;5120268;28;20462;-79
2021/12/02 01:41:02;;;;;;;7.60;3.27;;;4.40;99.90;;;;;;5121329;28;20406;-79
2021/12/02 01:43:49;;;;;;;5.33;3.07;;;4.40;99.90;;;;;;5122352;28;20191;-79
2021/12/02 01:46:21;;;;;;;7.37;3.30;;;4.40;99.90;;;;;;5119782;28;20508;-79
2021/12/02 01:48:55;;;;;;;9.73;3.67;;;4.40;99.90;;;;;;5118403;28;20802;-79
2021/12/02 01:51:24;;;;;;;12.60;5.10;;;4.30;99.90;;;;;;5120835;28;20875;-79
2021/12/02 01:53:54;;;;;;;6.37;2.83;;;4.40;99.90;;;;;;5120598;28;21059;-79
2021/12/02 01:56:20;;;;;;;3.20;2.10;;;4.40;99.90;;;;;;5125900;28;20488;-79
2021/12/02 01:58:51;;;;;;;1.60;1.50;;;4.30;99.90;;;;;;5128582;28;20450;-80
2021/12/02 02:01:22;;;;;;;3.27;2.70;;;4.40;99.90;;;;;;5129391;28;20178;-78
2021/12/02 02:03:49;;;;;;;2.17;1.87;;;4.40;99.90;;;;;;5125741;28;20431;-79
2021/12/02 02:06:27;;;;;;;2.13;1.67;;;4.40;99.90;;;;;;5122247;28;20925;-79
2021/12/02 02:08:56;;;;;;;6.17;3.57;;;4.40;99.90;;;;;;5121316;28;20409;-79
2021/12/02 02:11:28;;;;;;;3.00;2.10;;;4.40;99.90;;;;;;5123971;28;20401;-79
2021/12/02 02:13:54;;;;;;;2.07;1.80;;;4.40;99.90;;;;;;5119240;28;20433;-79
2021/12/02 02:16:20;;;;;;;2.33;2.13;;;4.40;99.90;;;;;;5118367;28;20483;-79
2021/12/02 02:18:46;;;;;;;2.00;1.63;;;4.40;99.90;;;;;;5120661;28;20397;-79
2021/12/02 02:21:15;;;;;;;2.40;2.20;;;4.30;99.90;;;;;;5118868;28;20183;-79
2021/12/02 02:23:49;;;;;;;2.90;2.03;;;4.30;99.90;;;;;;5118469;28;20195;-79
2021/12/02 02:26:17;;;;;;;5.17;2.13;;;4.30;99.90;;;;;;5119996;28;20489;-80
2021/12/02 02:28:43;;;;;;;1.90;1.80;;;4.40;99.90;;;;;;5120019;28;20416;-79
2021/12/02 02:31:09;;;;;;;3.33;2.10;;;4.30;99.90;;;;;;5119612;28;20770;-80
2021/12/02 02:33:38;;;;;;;4.53;1.90;;;4.30;99.90;;;;;;5119671;28;20199;-80
2021/12/02 02:36:05;;;;;;;2.00;1.80;;;4.30;99.90;;;;;;5118445;28;20563;-79
2021/12/02 02:38:31;;;;;;;3.53;2.40;;;4.30;99.90;;;;;;5118045;28;20413;-80
2021/12/02 02:41:00;;;;;;;3.57;2.17;;;4.30;99.90;;;;;;5120138;28;20401;-79
2021/12/02 02:43:27;;;;;;;3.67;2.13;;;4.20;99.90;;;;;;5118387;28;20433;-80
2021/12/02 02:45:53;;;;;;;2.00;1.50;;;4.20;99.90;;;;;;5118391;28;20441;-80
2021/12/02 02:48:18;;;;;;;1.40;1.30;;;4.10;99.90;;;;;;5119839;28;20431;-80
2021/12/02 02:50:44;;;;;;;3.23;2.50;;;4.20;99.90;;;;;;5118164;28;20661;-80
2021/12/02 02:53:17;;;;;;;1.17;1.10;;;4.10;99.90;;;;;;5119268;28;20218;-79
2021/12/02 02:55:50;;;;;;;3.70;2.07;;;4.10;99.90;;;;;;5118271;28;20235;-80
2021/12/02 02:58:27;;;;;;;4.77;3.60;;;4.10;99.90;;;;;;5118471;28;20398;-80
2021/12/02 03:03:52;;;;;;;3.40;2.23;;;4.00;99.90;;;;;;5108219;28;20455;-80
2021/12/02 03:08:58;;;;;;;1.87;1.63;;;3.90;99.90;;;;;;5119720;28;20411;-80
2021/12/02 03:11:27;;;;;;;2.90;1.90;;;3.90;99.90;;;;;;5119249;28;20405;-80
2021/12/02 03:13:54;;;;;;;1.30;1.20;;;3.90;99.90;;;;;;5121052;28;20814;-80
2021/12/02 03:19:05;;;;;;;1.63;1.50;;;3.90;99.90;;;;;;5123645;28;20393;-80
2021/12/02 03:21:30;;;;;;;2.67;1.47;;;3.90;99.90;;;;;;5122360;28;20838;-80
2021/12/02 03:24:00;;;;;;;1.73;1.63;;;3.90;99.90;;;;;;5119090;28;20214;-80
2021/12/02 03:26:27;;;;;;;1.57;1.47;;;3.90;99.90;;;;;;5119276;28;20174;-80
2021/12/02 03:28:53;;;;;;;1.83;1.50;;;3.90;99.90;;;;;;5117684;28;20409;-80
2021/12/02 03:31:20;;;;;;;2.00;1.80;;;3.80;99.90;;;;;;5118844;28;20402;-80
2021/12/02 03:33:47;;;;;;;1.73;1.40;;;3.90;99.90;;;;;;5117773;28;20206;-79
2021/12/02 03:36:14;;;;;;;1.87;1.50;;;3.80;99.90;;;;;;5119114;28;20453;-79
2021/12/02 03:38:40;;;;;;;2.30;1.50;;;3.90;99.90;;;;;;5119192;28;20413;-79
2021/12/02 03:41:06;;;;;;;1.67;1.57;;;3.80;99.90;;;;;;5117836;28;20478;-80
2021/12/02 03:43:36;;;;;;;1.77;1.60;;;3.70;99.90;;;;;;5118716;28;20501;-79
2021/12/02 03:46:02;;;;;;;2.03;1.50;;;3.80;99.90;;;;;;5120023;28;20407;-80
2021/12/02 03:48:27;;;;;;;1.67;1.53;;;3.80;99.90;;;;;;5119443;28;20997;-80
2021/12/02 03:50:53;;;;;;;2.30;1.57;;;3.80;99.90;;;;;;5123920;28;20540;-79
2021/12/02 03:53:19;;;;;;;1.70;1.60;;;3.80;99.90;;;;;;5122615;28;20333;-79
2021/12/02 03:55:44;;;;;;;1.63;1.53;;;3.80;99.90;;;;;;5120325;28;20249;-79
2021/12/02 03:58:10;;;;;;;2.27;1.70;;;3.80;99.90;;;;;;5117137;28;20180;-80
2021/12/02 04:00:36;;;;;;;1.53;1.43;;;3.80;99.90;;;;;;5116628;28;20183;-79
2021/12/02 04:03:01;;;;;;;1.43;1.33;;;3.80;99.90;;;;;;5117563;28;20202;-80
2021/12/02 04:05:27;;;;;;;1.97;1.77;;;3.70;99.90;;;;;;5118415;28;20182;-80
2021/12/02 04:07:53;;;;;;;1.60;1.47;;;3.60;99.90;;;;;;5118821;28;20171;-80
2021/12/02 04:10:19;;;;;;;1.60;1.40;;;3.50;99.90;;;;;;5118710;28;20231;-80
2021/12/02 04:15:14;;;;;;;1.50;1.40;;;3.40;99.90;;;;;;5122666;28;20448;-80
2021/12/02 04:17:43;;;;;;;1.73;1.63;;;3.40;99.90;;;;;;5121581;28;20197;-80
2021/12/02 04:20:17;;;;;;;2.27;1.70;;;3.40;99.90;;;;;;5122032;28;20993;-80
2021/12/02 04:22:43;;;;;;;1.70;1.60;;;3.30;99.90;;;;;;5122756;28;20804;-79
2021/12/02 04:25:10;;;;;;;1.70;1.60;;;3.40;99.90;;;;;;5121354;28;20512;-80
2021/12/02 04:27:36;;;;;;;1.40;1.30;;;3.30;99.90;;;;;;5120839;28;20417;-80
2021/12/02 04:30:09;;;;;;;1.40;1.30;;;3.30;99.90;;;;;;5122530;28;20906;-80
2021/12/02 04:32:35;;;;;;;1.23;1.13;;;3.30;99.90;;;;;;5122591;28;20195;-80
2021/12/02 04:35:01;;;;;;;3.00;1.30;;;3.20;99.90;;;;;;5121008;28;21004;-80
2021/12/02 04:37:28;;;;;;;1.80;1.70;;;3.20;99.90;;;;;;5122794;28;20405;-80
2021/12/02 04:39:53;;;;;;;2.83;1.70;;;3.20;99.90;;;;;;5121086;28;20172;-80
2021/12/02 04:42:19;;;;;;;1.73;1.40;;;3.20;99.90;;;;;;5121973;28;20937;-80
2021/12/02 04:44:44;;;;;;;1.53;1.40;;;3.20;99.90;;;;;;5122588;28;20171;-80
2021/12/02 04:47:10;;;;;;;1.87;1.60;;;3.10;99.90;;;;;;5120942;28;20228;-80
2021/12/02 04:49:36;;;;;;;1.47;1.37;;;3.20;99.90;;;;;;5122347;28;20176;-80
2021/12/02 04:52:02;;;;;;;1.50;1.40;;;3.20;99.90;;;;;;5123079;28;20171;-80
2021/12/02 04:54:28;;;;;;;1.53;1.43;;;3.20;99.90;;;;;;5124086;28;20544;-80
2021/12/02 04:56:54;;;;;;;1.30;1.20;;;3.10;99.90;;;;;;5124602;28;20823;-79
2021/12/02 04:59:20;;;;;;;1.80;1.63;;;3.10;99.90;;;;;;5121739;28;20159;-80
2021/12/02 05:01:45;;;;;;;1.50;1.40;;;3.40;99.90;;;;;;5120304;28;20409;-80
2021/12/02 05:04:11;;;;;;;2.40;1.60;;;3.10;99.90;;;;;;5120416;28;20207;-80
2021/12/02 05:06:37;;;;;;;1.60;1.50;;;3.10;99.90;;;;;;5120547;28;20176;-80
2021/12/02 05:09:03;;;;;;;1.77;1.50;;;3.10;99.90;;;;;;5122235;28;20172;-80
2021/12/02 05:11:29;;;;;;;1.40;1.30;;;3.00;99.90;;;;;;5120492;28;20175;-79
2021/12/02 05:13:55;;;;;;;1.60;1.50;;;3.00;99.90;;;;;;5119981;28;20976;-80
2021/12/02 05:16:20;;;;;;;2.50;1.60;;;2.90;99.90;;;;;;5120542;28;20203;-80
2021/12/02 05:18:46;;;;;;;2.03;1.70;;;3.00;99.90;;;;;;5122056;28;20197;-80
2021/12/02 05:21:12;;;;;;;1.73;1.63;;;2.80;99.90;;;;;;5120460;28;20573;-80
2021/12/02 05:23:38;;;;;;;1.33;1.20;;;2.80;99.90;;;;;;5120970;28;20195;-80
2021/12/02 05:26:04;;;;;;;2.53;2.13;;;2.80;99.90;;;;;;5120489;28;20421;-80
2021/12/02 05:28:30;;;;;;;2.00;1.40;;;2.70;99.90;;;;;;5120982;28;20202;-80
2021/12/02 05:30:55;;;;;;;1.67;1.40;;;2.70;99.90;;;;;;5120252;28;20207;-81
2021/12/02 05:33:21;;;;;;;1.83;1.70;;;2.80;99.90;;;;;;5123356;28;20203;-81
2021/12/02 05:35:47;;;;;;;1.60;1.50;;;2.80;99.90;;;;;;5124693;28;20195;-80
2021/12/02 05:38:13;;;;;;;3.30;1.40;;;2.50;99.90;;;;;;5124013;28;20182;-80
2021/12/02 05:40:39;;;;;;;1.87;1.43;;;2.70;99.90;;;;;;5125051;28;20811;-80
2021/12/02 05:43:05;;;;;;;2.37;1.40;;;2.60;99.90;;;;;;5122334;28;20187;-80
2021/12/02 05:45:31;;;;;;;3.67;1.47;;;2.70;99.90;;;;;;5120307;28;20204;-80
2021/12/02 05:47:57;;;;;;;1.43;1.33;;;2.70;99.90;;;;;;5121678;28;20189;-80
2021/12/02 05:50:23;;;;;;;1.77;1.40;;;2.70;99.90;;;;;;5127529;28;20586;-80
2021/12/02 05:52:48;;;;;;;1.53;1.43;;;2.60;99.90;;;;;;5127740;28;20631;-79
2021/12/02 05:55:14;;;;;;;2.40;1.67;;;2.60;99.90;;;;;;5123630;28;20218;-80
2021/12/02 05:57:40;;;;;;;1.60;1.50;;;2.70;99.90;;;;;;5120564;28;20259;-80
2021/12/02 06:00:07;;;;;;;2.70;1.87;;;2.50;99.90;;;;;;5118907;28;20171;-80
2021/12/02 06:02:36;;;;;;;5.73;5.10;;;2.60;99.90;;;;;;5119413;28;20172;-80
2021/12/02 06:05:02;;;;;;;2.80;1.63;;;2.60;99.90;;;;;;5121103;28;20406;-79
2021/12/02 06:07:27;;;;;;;3.37;2.07;;;2.60;99.90;;;;;;5118803;28;20988;-79
2021/12/02 06:09:54;;;;;;;1.80;1.70;;;2.60;99.90;;;;;;5120268;28;20414;-79
2021/12/02 06:12:19;;;;;;;3.70;1.47;;;2.60;99.90;;;;;;5118438;28;20184;-80
2021/12/02 06:14:45;;;;;;;2.40;1.43;;;2.70;99.90;;;;;;5118568;28;20486;-80
2021/12/02 06:17:11;;;;;;;2.03;1.90;;;2.50;99.90;;;;;;5118443;28;20174;-80
2021/12/02 06:19:37;;;;;;;1.63;1.40;;;2.60;99.90;;;;;;5120122;28;20168;-80
2021/12/02 06:22:03;;;;;;;2.37;1.63;;;2.60;99.90;;;;;;5118629;28;20565;-79
2021/12/02 06:24:32;;;;;;;1.67;1.50;;;2.50;99.90;;;;;;5119778;28;20191;-80
2021/12/02 06:26:58;;;;;;;3.80;2.97;;;2.60;99.90;;;;;;5118105;28;20424;-80
2021/12/02 06:29:24;;;;;;;1.43;1.33;;;2.60;99.90;;;;;;5120199;28;20423;-81
2021/12/02 06:31:49;;;;;;;3.00;1.40;;;2.60;99.90;;;;;;5118563;28;20413;-79
2021/12/02 06:34:15;;;;;;;2.10;1.50;;;3.00;99.90;;;;;;5116198;28;20199;-79
2021/12/02 06:36:41;;;;;;;2.30;1.43;;;2.50;99.90;;;;;;5117319;28;20172;-79
2021/12/02 06:39:06;;;;;;;1.40;1.30;;;2.50;99.90;;;;;;5119719;28;20196;-79
2021/12/02 06:41:33;;;;;;;1.97;1.80;;;2.60;99.90;;;;;;5119321;28;20553;-79
2021/12/02 06:43:59;;;;;;;2.80;2.60;;;2.50;99.90;;;;;;5119666;28;20196;-80
2021/12/02 06:46:28;;;;;;;2.80;1.37;;;2.50;99.90;;;;;;5118315;28;20421;-80
2021/12/02 06:48:54;;;;;;;2.30;2.03;;;2.50;99.90;;;;;;5118113;28;20413;-80
2021/12/02 06:51:20;;;;;;;2.13;1.93;;;2.40;99.90;;;;;;5119741;28;20885;-80
2021/12/02 06:53:48;;;;;;;2.67;1.43;;;2.40;99.90;;;;;;5118173;28;20217;-80
2021/12/02 06:56:13;;;;;;;5.40;3.87;;;2.50;99.90;;;;;;5119165;28;20195;-79
2021/12/02 06:58:39;;;;;;;4.83;2.10;;;2.50;99.90;;;;;;5119358;28;20405;-79
2021/12/02 07:01:05;;;;;;;3.67;1.60;;;2.50;99.90;;;;;;5119960;28;20178;-82
2021/12/02 07:03:30;;;;;;;3.77;2.50;;;2.50;99.90;;;;;;5119137;28;20191;-80
2021/12/02 07:05:56;;;;;;;1.53;1.43;;;2.50;99.90;;;;;;5118693;28;20175;-80
2021/12/02 07:08:22;;;;;;;2.93;2.67;;;2.70;99.90;;;;;;5120066;28;20175;-80
2021/12/02 07:10:48;;;;;;;2.43;2.23;;;2.60;99.90;;;;;;5118772;28;20542;-79
2021/12/02 07:13:13;;;;;;;19.47;13.93;;;2.70;99.90;;;;;;5117888;28;20286;-79
2021/12/02 07:15:43;;;;;;;2.83;2.63;;;2.60;99.90;;;;;;5118888;28;20669;-80
2021/12/02 07:18:15;;;;;;;1.60;1.50;;;2.60;99.90;;;;;;5119170;28;20164;-80
2021/12/02 07:20:43;;;;;;;1.40;1.30;;;2.60;99.90;;;;;;5118036;28;20413;-80
2021/12/02 07:23:09;;;;;;;5.23;1.63;;;2.50;99.90;;;;;;5117724;28;20433;-80
2021/12/02 07:25:37;;;;;;;2.40;1.50;;;2.60;99.90;;;;;;5118436;28;20519;-80
2021/12/02 07:28:03;;;;;;;5.40;1.77;;;2.70;99.90;;;;;;5120564;28;20932;-80
2021/12/02 07:30:28;;;;;;;4.60;1.60;;;2.70;99.90;;;;;;5120201;28;20409;-80
2021/12/02 07:32:57;;;;;;;1.67;1.47;;;2.70;99.90;;;;;;5119095;28;20218;-80
2021/12/02 07:35:24;;;;;;;3.93;1.33;;;2.80;99.90;;;;;;5119753;28;20198;-79
2021/12/02 07:37:55;;;;;;;1.60;1.43;;;2.70;99.90;;;;;;5120444;28;20773;-79
2021/12/02 07:40:22;;;;;;;1.73;1.20;;;2.70;99.90;;;;;;5120098;28;21374;-80
2021/12/02 07:42:53;;;;;;;1.00;0.90;;;2.80;99.90;;;;;;5119057;28;20421;-80
2021/12/02 07:45:21;;;;;;;1.53;1.10;;;2.80;99.90;;;;;;5117954;28;20458;-80
2021/12/02 07:47:48;;;;;;;3.67;1.10;;;3.00;99.90;;;;;;5117927;28;20405;-80
2021/12/02 07:50:15;;;;;;;2.00;1.50;;;2.90;99.90;;;;;;5117752;28;20877;-79
2021/12/02 07:52:54;;;;;;;1.40;1.30;;;3.00;99.90;;;;;;5118797;28;21011;-79
2021/12/02 07:55:22;;;;;;;1.80;1.23;;;3.00;99.90;;;;;;5120176;28;20460;-80
2021/12/02 07:57:50;;;;;;;3.37;1.57;;;3.10;99.90;;;;;;5121881;28;20462;-79
2021/12/02 08:00:18;;;;;;;4.77;1.73;;;3.10;99.90;;;;;;5119477;28;20905;-79
2021/12/02 08:02:46;;;;;;;2.97;1.60;;;3.10;99.90;;;;;;5118660;28;20429;-80
2021/12/02 08:05:13;;;;;;;2.27;1.60;;;3.10;99.90;;;;;;5118528;28;20409;-80
2021/12/02 08:07:40;;;;;;;2.43;1.27;;;3.50;99.90;;;;;;5117589;28;20497;-79
2021/12/02 08:10:10;;;;;;;2.83;1.93;;;3.80;99.90;;;;;;5118162;28;20413;-80
2021/12/02 08:12:37;;;;;;;1.63;1.33;;;3.90;99.90;;;;;;5120239;28;20479;-80
2021/12/02 08:15:05;;;;;;;1.30;1.20;;;4.20;99.90;;;;;;5120542;28;20945;-80
2021/12/02 08:17:31;;;;;;;2.67;1.60;;;4.20;99.90;;;;;;5120885;28;20459;-79
2021/12/02 08:19:57;;;;;;;2.50;1.40;;;4.20;99.90;;;;;;5121763;28;20406;-79
2021/12/02 08:22:23;;;;;;;3.63;1.40;;;4.50;99.90;;;;;;5119968;28;20269;-80
2021/12/02 08:24:49;;;;;;;1.73;1.47;;;4.50;99.90;;;;;;5119626;28;20183;-80
2021/12/02 08:27:14;;;;;;;2.00;1.40;;;4.60;99.90;;;;;;5120808;28;20659;-79
2021/12/02 08:29:42;;;;;;;2.53;1.50;;;4.70;99.90;;;;;;5121599;28;20186;-80
2021/12/02 08:32:07;;;;;;;1.83;1.40;;;4.90;99.90;;;;;;5116747;28;20665;-80
2021/12/02 08:34:33;;;;;;;3.40;1.27;;;5.10;99.90;;;;;;5116622;28;20465;-80
2021/12/02 08:36:59;;;;;;;3.63;2.20;;;5.30;99.90;;;;;;5118277;28;20171;-79
2021/12/02 08:39:28;;;;;;;1.90;1.30;;;5.40;99.90;;;;;;5117533;28;20214;-80
2021/12/02 08:41:55;;;;;;;2.57;1.50;;;5.60;99.90;;;;;;5118131;28;20201;-80
2021/12/02 08:44:23;;;;;;;2.53;0.80;;;5.40;99.90;;;;;;5117159;28;20205;-80
2021/12/02 08:46:51;;;;;;;2.10;1.30;;;5.40;99.90;;;;;;5118016;28;20182;-80
2021/12/02 08:49:17;;;;;;;2.00;1.40;;;5.70;99.90;;;;;;5118248;28;20190;-79
2021/12/02 08:51:44;;;;;;;2.07;0.90;;;5.80;99.90;;;;;;5118308;28;20219;-80
2021/12/02 08:54:11;;;;;;;5.20;1.30;;;5.70;99.90;;;;;;5117427;28;20204;-80
2021/12/02 08:56:37;;;;;;;2.67;1.03;;;5.70;99.90;;;;;;5117920;28;20183;-79
2021/12/02 08:59:03;;;;;;;1.40;0.80;;;6.10;99.90;;;;;;5120117;28;20176;-80
2021/12/02 09:01:29;;;;;;;3.43;1.00;;;6.10;99.90;;;;;;5120404;28;20347;-80
2021/12/02 09:03:56;;;;;;;2.53;1.30;;;6.20;99.90;;;;;;5121966;28;20196;-80
2021/12/02 09:06:22;;;;;;;4.63;2.03;;;6.50;99.90;;;;;;5120826;28;20177;-80
2021/12/02 09:08:50;;;;;;;4.03;2.07;;;6.70;99.90;;;;;;5120559;28;20185;-80
2021/12/02 09:11:16;;;;;;;2.90;1.20;;;6.60;99.90;;;;;;5120335;28;20199;-79
2021/12/02 09:13:42;;;;;;;3.83;1.90;;;6.90;99.90;;;;;;5121411;28;20203;-80
2021/12/02 09:16:08;;;;;;;3.73;1.90;;;6.70;99.90;;;;;;5121676;28;20518;-80
2021/12/02 09:18:34;;;;;;;7.00;1.67;;;6.80;99.90;;;;;;5121370;28;20182;-80
2021/12/02 09:20:59;;;;;;;5.53;1.83;;;7.20;99.90;;;;;;5120221;28;20200;-80
2021/12/02 09:23:26;;;;;;;2.60;1.30;;;7.00;99.90;;;;;;5121529;28;20243;-80
2021/12/02 09:25:52;;;;;;;3.27;1.33;;;6.20;99.90;;;;;;5120578;28;20632;-80
2021/12/02 09:28:18;;;;;;;6.60;1.90;;;5.70;99.90;;;;;;5120361;28;20633;-80
2021/12/02 09:30:45;;;;;;;1.53;1.30;;;5.50;99.90;;;;;;5120347;28;20210;-80
2021/12/02 09:33:11;;;;;;;1.10;1.00;;;5.40;99.90;;;;;;5120689;28;20618;-80
2021/12/02 09:35:37;;;;;;;2.70;0.83;;;5.20;99.90;;;;;;5120057;28;20297;-80
2021/12/02 09:38:05;;;;;;;6.07;2.10;;;5.10;99.90;;;;;;5121363;28;20179;-79
2021/12/02 09:40:31;;;;;;;2.83;1.30;;;5.10;99.90;;;;;;5120485;28;20176;-78
2021/12/02 09:42:57;;;;;;;2.27;1.07;;;4.80;99.90;;;;;;5120616;28;20676;-80
2021/12/02 09:45:23;;;;;;;2.63;1.20;;;4.80;99.90;;;;;;5121553;27;20183;-80
2021/12/02 09:47:51;;;;;;;3.10;1.20;;;4.90;99.90;;;;;;5127951;28;20164;-79
2021/12/02 09:50:32;;;;;;;2.53;1.13;;;4.90;99.90;;;;;;5131053;28;20175;-80
2021/12/02 09:53:07;;;;;;;3.63;1.20;;;4.80;99.90;;;;;;5128020;28;20195;-79
2021/12/02 09:58:12;;;;;;;2.00;1.27;;;4.90;99.90;;;;;;5121434;28;20683;-80
2021/12/02 10:01:02;;;;;;;2.57;1.00;;;4.90;99.90;;;;;;5121028;28;20605;-80
2021/12/02 10:03:33;;;;;;;3.83;1.30;;;4.50;99.90;;;;;;5120732;28;20188;-79
2021/12/02 10:06:08;;;;;;;5.83;1.30;;;4.40;99.90;;;;;;5120035;28;20174;-80
2021/12/02 10:11:29;;;;;;;2.27;1.20;;;4.20;99.90;;;;;;5121412;28;20844;-80
2021/12/02 10:14:00;;;;;;;2.97;1.27;;;;;;;;;;5120813;28;20237;-79
2021/12/02 10:19:08;;;;;;;8.07;3.00;;;4.30;99.90;;;;;;5123305;28;20417;-80
2021/12/02 10:21:49;;;;;;;6.50;1.80;;;4.00;99.90;;;;;;5123766;28;20402;-79
2021/12/02 10:24:23;;;;;;;10.53;5.47;;;4.30;99.90;;;;;;5118990;28;20457;-79
2021/12/02 10:27:08;;;;;;;3.70;2.60;;;4.50;99.90;;;;;;5118642;28;20894;-79
2021/12/02 10:29:37;;;;;;;2.83;2.33;;;4.40;99.90;;;;;;5117564;28;20402;-79
2021/12/02 10:32:25;;;;;;;2.77;1.57;;;4.40;99.90;;;;;;5118977;28;20409;-79
2021/12/02 10:35:02;;;;;;;2.40;1.53;;;4.70;99.90;;;;;;5117882;28;20457;-79
2021/12/02 10:37:36;;;;;;;1.30;1.10;;;5.20;99.90;;;;;;5118938;28;20890;-80
2021/12/02 10:40:11;;;;;;;1.53;1.43;;;5.10;99.90;;;;;;5119117;28;20389;-80
2021/12/02 10:42:42;;;;;;;2.03;1.40;;;5.60;99.90;;;;;;5118444;28;20433;-80
2021/12/02 10:45:18;;;;;;;2.90;1.27;;;5.70;99.90;;;;;;5119603;28;20386;-80
2021/12/02 10:47:49;;;;;;;2.37;1.50;;;5.80;99.90;;;;;;5117840;28;20413;-79
2021/12/02 10:50:15;;;;;;;3.63;1.40;;;6.50;99.90;;;;;;5117974;28;20416;-80
2021/12/02 10:52:41;;;;;;;1.63;0.97;;;7.20;99.90;;;;;;5119286;28;20672;-80
2021/12/02 10:55:19;;;;;;;5.20;1.00;;;7.00;99.90;;;;;;5118742;27;20274;-79
2021/12/02 10:57:51;;;;;;;3.33;1.57;;;7.10;99.90;;;;;;5119681;28;20626;-79
2021/12/02 11:00:20;;;;;;;3.00;1.80;;;7.40;99.90;;;;;;5119384;28;20180;-80
2021/12/02 11:02:53;;;;;;;1.80;0.93;;;7.20;99.90;;;;;;5117744;28;20215;-79
2021/12/02 11:05:32;;;;;;;1.73;1.03;;;6.90;99.90;;;;;;5117898;28;20174;-79
2021/12/02 11:08:12;;;;;;;2.57;0.87;;;6.60;99.90;;;;;;5117313;28;20686;-79
2021/12/02 11:10:39;;;;;;;4.70;2.23;;;6.40;99.90;;;;;;5117686;28;20542;-79
2021/12/02 11:13:05;;;;;;;4.60;3.30;;;6.50;99.90;;;;;;5119015;28;20191;-80
2021/12/02 11:15:34;;;;;;;2.40;1.43;;;6.50;99.90;;;;;;5118748;28;20249;-80
2021/12/02 11:18:04;;;;;;;4.17;1.60;;;6.60;99.90;;;;;;5116962;28;20263;-80
2021/12/02 11:20:42;;;;;;;2.57;1.50;;;6.40;99.90;;;;;;5117882;28;20175;-80
2021/12/02 11:23:42;;;;;;;2.83;1.33;;;5.50;99.90;;;;;;5118928;28;20191;-80
2021/12/02 11:26:11;;;;;;;5.60;1.60;;;5.30;99.90;;;;;;5116913;28;20160;-80
2021/12/02 11:28:41;;;;;;;1.73;1.47;;;5.40;99.90;;;;;;5116906;28;20681;-80
2021/12/02 11:31:20;;;;;;;4.00;2.07;;;6.00;99.90;;;;;;5118048;28;20189;-80
2021/12/02 11:33:48;;;;;;;2.53;1.63;;;6.30;99.90;;;;;;5117957;28;20254;-80
2021/12/02 11:36:25;;;;;;;1.57;1.30;;;5.70;99.90;;;;;;5118185;28;20696;-80
2021/12/02 11:38:57;;;;;;;3.83;1.40;;;5.60;99.90;;;;;;5099532;28;20173;-80
2021/12/02 11:41:23;;;;;;;2.47;1.47;;;6.50;99.90;;;;;;5110246;28;20169;-79
2021/12/02 11:43:53;;;;;;;5.77;3.13;;;7.00;99.90;;;;;;5118666;28;20218;-80
2021/12/02 11:46:19;;;;;;;8.13;2.90;;;6.80;99.90;;;;;;5117887;28;20167;-80
2021/12/02 11:48:45;;;;;;;3.70;2.57;;;6.60;99.90;;;;;;5120507;28;20177;-80
2021/12/02 11:51:14;;;;;;;8.77;3.17;;;5.80;99.90;;;;;;5129844;28;20171;-79
2021/12/02 11:53:40;;;;;;;3.40;2.70;;;5.20;99.90;;;;;;5125162;28;20246;-80
2021/12/02 11:56:13;;;;;;;4.03;2.57;;;5.10;99.90;;;;;;5124775;28;20212;-79
2021/12/02 11:58:39;;;;;;;3.07;2.00;;;5.10;99.90;;;;;;5118045;28;20296;-79
2021/12/02 12:01:08;;;;;;;2.57;1.50;;;5.30;99.90;;;;;;5116537;28;20175;-79
2021/12/02 12:03:43;;;;;;;3.23;1.93;;;6.30;99.90;;;;;;5117510;28;20195;-80
2021/12/02 12:06:13;;;;;;;2.63;1.40;;;6.80;99.90;;;;;;5117675;28;20244;-79
2021/12/02 12:08:45;;;;;;;2.70;2.23;;;6.80;99.90;;;;;;5118413;28;20174;-80
2021/12/02 12:11:22;;;;;;;4.93;2.30;;;6.90;99.90;;;;;;5118126;28;20633;-79
2021/12/02 12:13:54;;;;;;;3.70;2.00;;;6.80;99.90;;;;;;5118343;28;20228;-79
2021/12/02 12:16:42;;;;;;;3.03;1.43;;;6.80;99.90;;;;;;5118129;28;20199;-80
2021/12/02 12:19:29;;;;;;;6.47;2.23;;;6.70;99.90;;;;;;5120070;28;20164;-80
2021/12/02 12:22:01;;;;;;;7.10;3.23;;;6.70;99.90;;;;;;5120185;28;20669;-80
2021/12/02 12:24:44;;;;;;;2.37;2.17;;;7.00;99.90;;;;;;5119782;28;20187;-80
2021/12/02 12:27:19;;;;;;;3.80;1.60;;;6.30;99.90;;;;;;5120478;28;20235;-81
2021/12/02 12:29:48;;;;;;;5.53;3.27;;;6.20;99.90;;;;;;5119559;28;20182;-81
2021/12/02 12:40:18;;;;;;;2.17;1.30;;;5.20;99.90;;;;;;5129458;28;20179;-80
2021/12/02 12:42:51;;;;;;;2.80;1.40;;;5.00;99.90;;;;;;5123542;28;20192;-80
2021/12/02 12:45:33;;;;;;;3.07;1.33;;;4.90;99.90;;;;;;5124830;28;20167;-80
2021/12/02 12:48:01;;;;;;;4.93;1.23;;;5.00;99.90;;;;;;5123733;28;20401;-81
2021/12/02 12:50:43;;;;;;;2.13;1.20;;;4.70;99.90;;;;;;5124529;28;20473;-80
2021/12/02 12:53:18;;;;;;;2.70;2.10;;;8.20;99.90;;;;;;5125558;28;20429;-80
2021/12/02 12:56:04;;;;;;;5.33;2.30;;;4.90;99.90;;;;;;5125008;28;20810;-80
2021/12/02 12:58:31;;;;;;;2.70;1.50;;;5.00;99.90;;;;;;5122542;28;20470;-80
2021/12/02 13:00:57;;;;;;;7.60;3.47;;;4.90;99.90;;;;;;5123326;28;20421;-80
2021/12/02 13:03:30;;;;;;;12.37;7.40;;;5.00;99.90;;;;;;5122011;28;20426;-80
2021/12/02 13:06:10;;;;;;;8.97;4.67;;;5.00;99.90;;;;;;5122826;28;20193;-80
2021/12/02 13:08:57;;;;;;;8.47;4.87;;;5.10;99.90;;;;;;5122508;28;20768;-81
2021/12/02 13:11:32;;;;;;;3.10;2.70;;;5.00;99.90;;;;;;5122316;28;20405;-82
2021/12/02 13:14:03;;;;;;;3.57;2.30;;;4.90;99.90;;;;;;5124415;28;20543;-80
2021/12/02 13:16:37;;;;;;;4.87;2.37;;;4.90;99.90;;;;;;5122756;28;20440;-80
2021/12/02 13:19:15;;;;;;;1.83;1.40;;;4.80;99.90;;;;;;5121204;28;20412;-80
2021/12/02 13:21:43;;;;;;;4.40;2.57;;;4.80;99.90;;;;;;5122842;28;20436;-80
2021/12/02 13:24:13;;;;;;;4.37;1.60;;;4.80;99.90;;;;;;5121365;28;20347;-80
2021/12/02 13:26:41;;;;;;;2.37;1.40;;;4.70;99.90;;;;;;5122628;28;20434;-80
2021/12/02 13:29:12;;;;;;;1.63;1.53;;;4.70;99.90;;;;;;5120744;28;20433;-80
2021/12/02 13:31:41;;;;;;;1.73;1.30;;;4.60;99.90;;;;;;5119405;28;20421;-79
2021/12/02 13:34:11;;;;;;;1.63;1.53;;;;;;;;;;5120849;28;20429;-79
2021/12/02 13:36:42;;;;;;;1.77;1.50;;;4.40;99.90;;;;;;5119650;28;20441;-79
2021/12/02 13:39:16;;;;;;;2.00;1.80;;;4.30;99.90;;;;;;5122074;28;20170;-79